Williston, Vermont
Current Conditions -  °F | °C
As of 12:54 AM on Sunday 26 Oct 2014 (Local Time) from KBTV Reporting Station
Scattered Clouds Scattered Clouds  
Wind Chill: 53°   Ceiling: Unl
Heat Index: 53°   Visibility: 10mi
Dew Point: 44°   Wind: 6mph
Humidity: 71%   Direction: 230°SW
Pressure: 29.43"   Gusts: NA
Location:  44.44°N, 73.07°W
Report Text: KBTV 260454Z AUTO 23005KT 10SM FEW075 SCT100 12/07 A2943 RMK AO2 SLP967 T01170067 401500017
Loading
Personal Weather Stations






























Interactive Weather Map New forecast layout! Learn more

10-Day Weather Forecast

Advertisements
Track Severe Weather on mobile